createdAt,value
2022-10-17T00:00:37.151Z,101375.31
2022-10-17T00:03:05.708Z,101290.13
2022-10-17T00:05:34.113Z,101357.84
2022-10-17T00:08:02.527Z,101354.31
2022-10-17T00:10:30.888Z,101369.25
2022-10-17T00:13:00.579Z,101360.28
2022-10-17T00:15:29.078Z,101368.16
2022-10-17T00:17:58.125Z,101354.22
2022-10-17T00:20:26.812Z,101340.09
2022-10-17T00:22:55.289Z,101345.28
2022-10-17T00:25:23.782Z,101355.13
2022-10-17T00:27:52.098Z,101345.47
2022-10-17T00:30:21.924Z,101350.59
2022-10-17T00:32:50.241Z,101343.00
2022-10-17T00:35:19.140Z,101359.06
2022-10-17T00:37:47.437Z,101352.09
2022-10-17T00:40:15.906Z,101349.53
2022-10-17T00:42:44.140Z,101342.53
2022-10-17T00:45:22.851Z,101346.78
2022-10-17T00:47:57.395Z,101352.94
2022-10-17T00:50:26.492Z,101360.03
2022-10-17T00:52:56.555Z,101363.66
2022-10-17T00:55:29.986Z,101332.97
2022-10-17T00:57:59.312Z,101330.31
2022-10-17T01:00:29.151Z,101356.63
2022-10-17T01:02:59.560Z,101352.94
2022-10-17T01:05:28.172Z,101352.94
2022-10-17T01:07:57.378Z,101349.38
2022-10-17T01:10:32.075Z,101344.69
2022-10-17T01:13:13.539Z,101339.47
2022-10-17T01:15:58.315Z,101334.78
2022-10-17T01:18:42.250Z,101313.25
2022-10-17T01:21:47.793Z,101324.97
2022-10-17T01:24:48.823Z,101322.28
2022-10-17T01:27:48.756Z,101305.81
2022-10-17T01:30:45.292Z,101306.47
2022-10-17T01:33:23.544Z,101319.78
2022-10-17T01:36:01.831Z,101307.72
2022-10-17T01:38:39.135Z,101306.88
2022-10-17T01:41:18.101Z,101320.84
2022-10-17T01:43:54.175Z,101326.28
2022-10-17T01:46:28.647Z,101302.47
2022-10-17T01:49:02.090Z,101310.81
2022-10-17T01:51:35.760Z,101305.66
2022-10-17T01:54:08.472Z,101300.84
2022-10-17T01:56:39.401Z,101284.06
2022-10-17T01:59:20.671Z,101301.91
2022-10-17T02:01:52.932Z,101296.31
2022-10-17T02:04:23.399Z,101299.78
2022-10-17T02:06:51.676Z,101295.28
2022-10-17T02:09:23.713Z,101277.34
2022-10-17T02:12:17.286Z,101293.88
2022-10-17T02:15:06.297Z,101284.41
2022-10-17T02:17:46.604Z,101287.06
2022-10-17T02:20:25.369Z,101264.22
2022-10-17T02:22:59.947Z,101227.00
2022-10-17T02:25:38.237Z,101273.66
2022-10-17T02:28:20.617Z,101271.97
2022-10-17T02:30:57.259Z,101270.22
2022-10-17T02:33:31.622Z,101273.66
2022-10-17T02:36:07.461Z,101290.53
2022-10-17T02:38:36.805Z,101289.63
2022-10-17T02:41:07.617Z,101290.56
2022-10-17T02:43:37.691Z,101253.56
2022-10-17T02:46:07.935Z,101303.56
2022-10-17T02:48:40.106Z,101306.00
2022-10-17T02:51:20.238Z,101312.25
2022-10-17T02:53:57.295Z,101315.50
2022-10-17T02:56:28.547Z,101241.88
2022-10-17T02:58:59.997Z,101310.50
2022-10-17T03:01:28.735Z,101311.22
2022-10-17T03:04:07.810Z,101304.84
2022-10-17T03:06:37.719Z,101301.34
2022-10-17T03:09:06.392Z,101303.16
2022-10-17T03:11:35.181Z,101310.19
2022-10-17T03:14:03.613Z,101314.59
2022-10-17T03:16:31.931Z,101313.53
2022-10-17T03:19:00.330Z,101321.53
2022-10-17T03:21:28.948Z,101311.59
2022-10-17T03:23:59.076Z,101323.28
2022-10-17T03:26:27.554Z,101315.34
2022-10-17T03:28:55.990Z,101317.84
2022-10-17T03:31:25.079Z,101308.94
2022-10-17T03:33:54.201Z,101309.75
2022-10-17T03:36:22.759Z,101314.97
2022-10-17T03:38:55.564Z,101299.28
2022-10-17T03:41:26.067Z,101321.41
2022-10-17T03:43:55.593Z,101312.63
2022-10-17T03:46:25.389Z,101306.41
2022-10-17T03:48:55.282Z,101295.84
2022-10-17T03:51:23.903Z,101245.78
2022-10-17T03:53:56.967Z,101324.78
2022-10-17T03:56:27.758Z,101329.09
2022-10-17T03:59:03.610Z,101322.72
2022-10-17T04:01:35.091Z,101266.50
2022-10-17T04:04:03.634Z,101331.47
2022-10-17T04:06:35.485Z,101333.84
2022-10-17T04:09:04.986Z,101330.44
2022-10-17T04:11:42.032Z,101326.75
2022-10-17T04:14:11.975Z,101318.72
2022-10-17T04:16:41.103Z,101335.16
2022-10-17T04:19:17.354Z,101318.38
2022-10-17T04:21:48.208Z,101341.78
2022-10-17T04:24:17.221Z,101348.59
2022-10-17T04:27:09.779Z,101354.53
2022-10-17T04:29:42.038Z,101349.88
2022-10-17T04:32:18.346Z,101319.59
2022-10-17T04:34:51.118Z,101354.25
2022-10-17T04:37:21.430Z,101348.50
2022-10-17T04:39:51.828Z,101349.34
2022-10-17T04:42:21.822Z,101353.56
2022-10-17T04:44:52.719Z,101345.69
2022-10-17T04:47:21.016Z,101362.31
2022-10-17T04:49:49.388Z,101351.66
2022-10-17T04:52:18.272Z,101354.38
2022-10-17T04:54:50.076Z,101349.81
2022-10-17T04:57:21.119Z,101346.28
2022-10-17T04:59:57.945Z,101349.75
2022-10-17T05:02:51.671Z,101272.44
2022-10-17T05:05:21.501Z,101251.53
2022-10-17T05:07:53.713Z,101375.69
2022-10-17T05:10:26.011Z,101386.44
2022-10-17T05:12:57.931Z,101388.03
2022-10-17T05:15:30.641Z,101380.91
2022-10-17T05:17:59.571Z,101345.50
2022-10-17T05:20:30.432Z,101371.59
2022-10-17T05:23:00.612Z,101360.66
2022-10-17T05:25:33.602Z,101372.03
2022-10-17T05:28:03.410Z,101374.72
2022-10-17T05:30:35.271Z,101373.88
2022-10-17T05:33:07.721Z,101380.13
2022-10-17T05:35:36.519Z,101382.69
2022-10-17T05:38:04.920Z,101390.56
2022-10-17T05:40:35.323Z,101392.13
2022-10-17T05:43:05.775Z,101296.03
2022-10-17T05:45:34.324Z,101373.22
2022-10-17T05:48:03.398Z,101381.28
2022-10-17T05:50:32.023Z,101375.19
2022-10-17T05:53:08.348Z,101379.44
2022-10-17T05:55:41.456Z,101376.91
2022-10-17T05:58:17.724Z,101382.28
2022-10-17T06:00:59.026Z,101393.00
2022-10-17T06:03:28.548Z,101403.34
2022-10-17T06:05:56.965Z,101393.66
2022-10-17T06:08:25.390Z,101407.66
2022-10-17T06:10:53.750Z,101399.59
2022-10-17T06:13:23.482Z,101404.97
2022-10-17T06:15:53.500Z,101407.88
2022-10-17T06:18:21.918Z,101415.63
2022-10-17T06:20:50.265Z,101412.97
2022-10-17T06:23:20.317Z,101405.81
2022-10-17T06:26:01.624Z,101413.59
2022-10-17T06:28:34.040Z,101422.94
2022-10-17T06:31:07.065Z,101418.75
2022-10-17T06:33:35.704Z,101431.97
2022-10-17T06:36:07.015Z,101438.63
2022-10-17T06:38:36.717Z,101434.88
2022-10-17T06:41:13.713Z,101424.28
2022-10-17T06:43:46.452Z,101409.69
2022-10-17T06:46:33.303Z,101420.47
2022-10-17T06:49:05.468Z,101433.63
2022-10-17T06:52:12.368Z,101423.09
2022-10-17T06:54:49.032Z,101446.09
2022-10-17T06:57:35.929Z,101473.84
2022-10-17T07:00:26.706Z,101394.03
2022-10-17T07:02:57.712Z,101498.50
2022-10-17T07:05:26.200Z,101510.22
2022-10-17T07:07:54.489Z,101512.78
2022-10-17T07:10:22.919Z,101502.28
2022-10-17T07:12:51.283Z,101538.50
2022-10-17T07:15:19.764Z,101542.50
2022-10-17T07:17:51.555Z,101558.72
2022-10-17T07:20:20.898Z,101564.97
2022-10-17T07:22:49.155Z,101567.66
2022-10-17T07:25:17.767Z,101579.09
2022-10-17T07:27:51.723Z,101590.06
2022-10-17T07:30:20.792Z,101605.88
2022-10-17T07:33:02.541Z,101604.97
2022-10-17T07:35:32.345Z,101614.88
2022-10-17T07:38:00.762Z,101595.75
2022-10-17T07:40:29.162Z,101621.44
2022-10-17T07:42:58.460Z,101630.25
2022-10-17T07:45:28.005Z,101637.53
2022-10-17T07:47:58.344Z,101636.63
2022-10-17T07:50:29.166Z,101652.72
2022-10-17T07:52:57.471Z,101649.16
2022-10-17T07:55:25.728Z,101628.16
2022-10-17T07:57:55.652Z,101651.25
2022-10-17T08:00:23.967Z,101641.25
2022-10-17T08:02:52.277Z,101641.53
2022-10-17T08:05:20.714Z,101654.75
2022-10-17T08:07:50.343Z,101659.34
2022-10-17T08:10:18.803Z,101636.53
2022-10-17T08:12:47.116Z,101625.78
2022-10-17T08:15:15.463Z,101627.06
2022-10-17T08:17:43.776Z,101618.63
2022-10-17T08:20:13.034Z,101609.50
2022-10-17T08:22:41.340Z,101632.66
2022-10-17T08:25:11.651Z,101647.94
2022-10-17T08:27:39.975Z,101652.50
2022-10-17T08:30:10.139Z,101626.63
2022-10-17T08:32:38.456Z,101614.88
2022-10-17T08:35:07.799Z,101608.47
2022-10-17T08:37:36.733Z,101593.41
2022-10-17T08:40:06.244Z,101603.97
2022-10-17T08:43:25.603Z,101605.56
2022-10-17T08:46:00.396Z,101541.44
2022-10-17T08:48:33.017Z,101601.38
2022-10-17T08:51:07.442Z,101627.56
2022-10-17T08:53:40.927Z,101643.66
2022-10-17T08:56:24.925Z,101650.03
2022-10-17T08:59:14.403Z,101663.34
2022-10-17T09:01:52.391Z,101675.00
2022-10-17T09:04:49.539Z,101674.06
2022-10-17T09:07:23.836Z,101647.22
2022-10-17T09:10:03.941Z,101648.00
2022-10-17T09:12:41.810Z,101657.78
2022-10-17T09:15:39.555Z,101635.72
2022-10-17T09:18:16.665Z,101649.03
2022-10-17T09:20:53.632Z,101649.91
2022-10-17T09:23:25.888Z,101658.91
2022-10-17T09:25:56.441Z,101670.50
2022-10-17T09:28:30.589Z,101688.34
2022-10-17T09:31:04.638Z,101696.72
2022-10-17T09:33:56.631Z,101716.44
2022-10-17T09:36:29.503Z,101713.88
2022-10-17T09:39:01.754Z,101719.28
2022-10-17T09:44:31.876Z,101722.81
2022-10-17T09:47:29.938Z,101721.13
2022-10-17T09:49:58.637Z,101736.22
2022-10-17T09:52:32.585Z,101740.97
2022-10-17T09:55:06.364Z,101746.34
2022-10-17T09:57:56.429Z,101741.28
2022-10-17T10:00:27.869Z,101750.13
2022-10-17T10:03:15.883Z,101756.22
2022-10-17T10:06:00.347Z,101753.75
2022-10-17T10:08:32.629Z,101755.25
2022-10-17T10:11:04.675Z,101775.28
2022-10-17T10:13:35.366Z,101768.25
2022-10-17T10:16:18.851Z,101757.78
2022-10-17T10:18:50.979Z,101759.91
2022-10-17T10:21:21.819Z,101788.84
2022-10-17T10:24:14.121Z,101808.84
2022-10-17T10:26:45.729Z,101804.47
2022-10-17T10:29:26.673Z,101808.97
2022-10-17T10:31:55.324Z,101805.75
2022-10-17T10:34:29.872Z,101745.13
2022-10-17T10:37:03.496Z,101806.34
2022-10-17T10:39:51.064Z,101829.53
2022-10-17T10:42:24.846Z,101822.16
2022-10-17T10:44:53.933Z,101824.06
2022-10-17T10:47:26.261Z,101820.63
2022-10-17T10:50:25.466Z,101819.81
2022-10-17T10:53:15.799Z,101836.41
2022-10-17T10:55:49.229Z,101822.13
2022-10-17T10:58:29.330Z,101827.53
2022-10-17T11:01:03.755Z,101830.00
2022-10-17T11:03:38.723Z,101808.63
2022-10-17T11:06:26.380Z,101826.59
2022-10-17T11:09:33.938Z,101827.38
2022-10-17T11:12:08.252Z,101799.09
2022-10-17T11:14:44.500Z,101847.78
2022-10-17T11:17:24.630Z,101853.03
2022-10-17T11:20:05.316Z,101856.47
2022-10-17T11:22:40.076Z,101849.38
2022-10-17T11:25:34.764Z,101880.31
2022-10-17T11:28:05.276Z,101877.44
2022-10-17T11:30:50.004Z,101892.53
2022-10-17T11:33:28.158Z,101880.06
2022-10-17T11:36:04.617Z,101906.59
2022-10-17T11:38:47.345Z,101886.91
2022-10-17T11:41:22.178Z,101899.28
2022-10-17T11:43:56.671Z,101916.94
2022-10-17T11:46:27.315Z,101906.28
2022-10-17T11:49:02.172Z,101918.00
2022-10-17T11:54:36.048Z,101915.88
2022-10-17T11:57:37.379Z,101923.78
2022-10-17T12:00:26.474Z,101892.72
2022-10-17T12:03:08.606Z,101925.53
2022-10-17T12:05:46.556Z,101931.66
2022-10-17T12:08:27.968Z,101930.53
2022-10-17T12:11:05.298Z,101922.38
2022-10-17T12:13:56.276Z,101933.91
2022-10-17T12:16:46.808Z,101931.31
2022-10-17T12:19:32.489Z,101936.44
2022-10-17T12:22:21.315Z,101939.13
2022-10-17T12:24:59.565Z,101947.28
2022-10-17T12:27:43.697Z,101953.31
2022-10-17T12:30:23.149Z,101954.22
2022-10-17T12:33:08.445Z,101962.06
2022-10-17T12:35:39.413Z,101964.56
2022-10-17T12:38:29.223Z,101967.47
2022-10-17T12:41:07.358Z,101963.00
2022-10-17T12:43:55.488Z,101971.22
2022-10-17T12:46:49.191Z,101960.38
2022-10-17T12:49:43.389Z,101974.59
2022-10-17T12:52:25.886Z,101979.97
2022-10-17T12:55:10.864Z,101975.38
2022-10-17T12:57:55.445Z,101985.53
2022-10-17T13:00:33.173Z,101984.53
2022-10-17T13:03:12.336Z,101989.06
2022-10-17T13:05:46.766Z,101987.22
2022-10-17T13:08:21.045Z,102001.47
2022-10-17T13:10:53.274Z,102001.59
2022-10-17T13:13:25.377Z,102003.47
2022-10-17T13:15:56.021Z,101975.09
2022-10-17T13:18:27.215Z,102007.78
2022-10-17T13:21:02.088Z,102006.19
2022-10-17T13:23:36.313Z,102012.28
2022-10-17T13:26:15.393Z,102006.78
2022-10-17T13:28:44.135Z,101998.81
2022-10-17T13:31:32.778Z,101997.88
2022-10-17T13:34:04.002Z,102001.47
2022-10-17T13:36:34.357Z,102002.50
2022-10-17T13:39:12.322Z,102003.94
2022-10-17T13:41:42.873Z,102002.16
2022-10-17T13:44:15.455Z,102010.97
2022-10-17T13:46:46.103Z,102004.75
2022-10-17T13:49:20.598Z,102006.69
2022-10-17T13:51:52.984Z,101998.47
2022-10-17T13:54:36.815Z,101963.03
2022-10-17T13:57:07.173Z,101982.34
2022-10-17T13:59:40.621Z,102008.13
2022-10-17T14:02:16.888Z,102023.31
2022-10-17T14:05:15.193Z,102028.59
2022-10-17T14:08:10.147Z,102049.16
2022-10-17T14:10:33.964Z,102049.84
2022-10-17T14:13:04.282Z,102059.75
2022-10-17T14:15:36.228Z,102047.03
2022-10-17T14:18:09.180Z,102042.78
2022-10-17T14:21:19.772Z,102051.75
2022-10-17T14:23:37.545Z,102052.56
2022-10-17T14:26:15.912Z,102040.97
2022-10-17T14:28:48.297Z,102056.28
2022-10-17T14:31:31.740Z,102050.31
2022-10-17T14:34:03.053Z,102053.09
2022-10-17T14:36:35.657Z,102050.28
2022-10-17T14:39:08.548Z,102039.78
2022-10-17T14:41:44.795Z,102045.97
2022-10-17T14:44:27.143Z,102013.38
2022-10-17T14:47:06.032Z,102046.78
2022-10-17T14:49:41.970Z,102060.06
2022-10-17T14:52:33.069Z,102081.56
2022-10-17T14:55:20.567Z,102068.88
2022-10-17T14:57:48.852Z,102069.84
2022-10-17T15:00:18.736Z,102078.03
2022-10-17T15:02:48.274Z,102078.81
2022-10-17T15:05:19.462Z,102080.69
2022-10-17T15:07:47.930Z,102073.69
2022-10-17T15:10:32.886Z,102073.13
2022-10-17T15:13:26.067Z,102091.38
2022-10-17T15:15:52.398Z,102064.00
2022-10-17T15:18:20.991Z,102102.22
2022-10-17T15:20:59.512Z,102110.19
2022-10-17T15:23:33.593Z,102099.47
2022-10-17T15:26:02.267Z,102108.34
2022-10-17T15:28:30.692Z,102113.66
2022-10-17T15:30:59.147Z,102116.81
2022-10-17T15:33:27.455Z,102124.16
2022-10-17T15:38:26.230Z,102127.44
2022-10-17T15:40:54.472Z,102123.25
2022-10-17T15:43:22.765Z,102128.41
2022-10-17T15:45:51.207Z,102125.78
2022-10-17T15:48:26.238Z,102126.78
2022-10-17T15:50:55.989Z,102135.81
2022-10-17T15:53:24.627Z,102130.53
2022-10-17T15:55:52.881Z,102124.22
2022-10-17T15:58:21.577Z,102121.66
2022-10-17T16:00:50.001Z,102123.75
2022-10-17T16:03:18.353Z,102133.44
2022-10-17T16:05:47.059Z,102135.28
2022-10-17T16:08:16.655Z,102139.88
2022-10-17T16:10:44.908Z,102138.94
2022-10-17T16:13:19.024Z,102146.91
2022-10-17T16:15:47.520Z,102131.88
2022-10-17T16:18:15.900Z,102150.66
2022-10-17T16:20:44.332Z,102154.31
2022-10-17T16:23:15.701Z,102155.09
2022-10-17T16:25:44.040Z,102148.31
2022-10-17T16:28:12.476Z,102158.78
2022-10-17T16:30:46.363Z,102158.09
2022-10-17T16:33:14.813Z,102164.34
2022-10-17T16:35:43.276Z,102173.28
2022-10-17T16:38:11.612Z,102170.63
2022-10-17T16:40:41.443Z,102182.31
2022-10-17T16:43:12.356Z,102100.06
2022-10-17T16:45:41.376Z,102187.66
2022-10-17T16:48:12.172Z,102190.41
2022-10-17T16:50:41.622Z,102150.53
2022-10-17T16:53:09.854Z,102170.03
2022-10-17T16:55:38.198Z,102184.19
2022-10-17T16:58:08.023Z,102183.38
2022-10-17T17:00:36.334Z,102185.97
2022-10-17T17:03:05.523Z,102194.91
2022-10-17T17:05:33.962Z,102169.22
2022-10-17T17:08:03.787Z,102199.34
2022-10-17T17:10:32.181Z,102196.75
2022-10-17T17:13:01.762Z,102207.53
2022-10-17T17:15:31.789Z,102205.78
2022-10-17T17:18:04.950Z,102213.81
2022-10-17T17:20:34.945Z,102211.13
2022-10-17T17:23:03.399Z,102219.16
2022-10-17T17:25:31.773Z,102220.06
2022-10-17T17:28:00.012Z,102204.03
2022-10-17T17:30:29.652Z,102206.78
2022-10-17T17:33:00.048Z,102210.50
2022-10-17T17:35:28.731Z,102211.41
2022-10-17T17:37:57.088Z,102216.78
2022-10-17T17:40:25.537Z,102227.44
2022-10-17T17:42:53.815Z,102232.75
2022-10-17T17:45:22.192Z,102208.84
2022-10-17T17:47:50.606Z,102231.00
2022-10-17T17:50:20.593Z,102231.94
2022-10-17T17:52:51.098Z,102230.16
2022-10-17T17:55:19.424Z,102236.47
2022-10-17T17:57:47.684Z,102234.69
2022-10-17T18:00:16.407Z,102244.44
2022-10-17T18:02:44.692Z,102247.03
2022-10-17T18:05:13.078Z,102247.91
2022-10-17T18:07:42.904Z,102227.47
2022-10-17T18:12:44.196Z,102232.13
2022-10-17T18:15:12.978Z,102232.16
2022-10-17T18:17:44.501Z,102236.78
2022-10-17T18:20:13.497Z,102245.66
2022-10-17T18:22:43.070Z,102250.13
2022-10-17T18:25:11.915Z,102252.91
2022-10-17T18:27:40.206Z,102259.00
2022-10-17T18:30:10.300Z,102267.00
2022-10-17T18:32:38.613Z,102262.50
2022-10-17T18:35:07.835Z,102263.41
2022-10-17T18:37:36.178Z,102269.56
2022-10-17T18:40:07.346Z,102266.91
2022-10-17T18:42:35.786Z,102274.94
2022-10-17T18:45:05.726Z,102267.88
2022-10-17T18:47:34.288Z,102255.44
2022-10-17T18:50:02.570Z,102265.25
2022-10-17T18:52:30.862Z,102268.84
2022-10-17T18:54:59.235Z,102280.47
2022-10-17T18:57:29.161Z,102281.34
2022-10-17T18:59:57.674Z,102273.34
2022-10-17T19:02:26.043Z,102276.94
2022-10-17T19:04:54.404Z,102281.41
2022-10-17T19:07:22.671Z,102289.47
2022-10-17T19:09:51.192Z,102284.09
2022-10-17T19:12:19.437Z,102290.44
2022-10-17T19:14:51.217Z,102286.03
2022-10-17T19:17:19.656Z,102293.97
2022-10-17T19:19:50.250Z,102292.13
2022-10-17T19:22:18.481Z,102293.03
2022-10-17T19:24:46.681Z,102301.03
2022-10-17T19:27:15.011Z,102298.44
2022-10-17T19:29:44.073Z,102303.81
2022-10-17T19:32:16.747Z,102296.66
2022-10-17T19:34:47.582Z,102289.56
2022-10-17T19:37:15.866Z,102290.53
2022-10-17T19:39:44.200Z,102296.78
2022-10-17T19:42:12.500Z,102293.22
2022-10-17T19:44:40.832Z,102304.81
2022-10-17T19:47:09.076Z,102317.28
2022-10-17T19:49:39.166Z,102320.91
2022-10-17T19:52:07.446Z,102261.59
2022-10-17T19:54:35.681Z,102327.28
2022-10-17T19:57:08.066Z,102323.00
2022-10-17T19:59:38.813Z,102321.97
2022-10-17T20:02:07.222Z,102314.81
2022-10-17T20:04:35.547Z,102314.00
2022-10-17T20:07:05.202Z,102317.50
2022-10-17T20:09:33.658Z,102312.16
2022-10-17T20:12:01.986Z,102317.50
2022-10-17T20:14:30.429Z,102326.47
2022-10-17T20:16:58.741Z,102327.38
2022-10-17T20:19:27.117Z,102334.56
2022-10-17T20:21:55.442Z,102336.38
2022-10-17T20:24:25.240Z,102344.47
2022-10-17T20:26:53.581Z,102349.03
2022-10-17T20:29:24.007Z,102348.22
2022-10-17T20:31:52.446Z,102357.16
2022-10-17T20:34:20.967Z,102359.84
2022-10-17T20:36:50.108Z,102350.06
2022-10-17T20:39:21.616Z,102256.97
2022-10-17T20:41:51.296Z,102361.66
2022-10-17T20:44:19.795Z,102351.94
2022-10-17T20:47:01.138Z,102360.94
2022-10-17T20:49:31.123Z,102354.75
2022-10-17T20:52:00.091Z,102340.66
2022-10-17T20:54:29.331Z,102374.56
2022-10-17T20:57:02.441Z,102383.56
2022-10-17T20:59:34.327Z,102349.81
2022-10-17T21:02:02.939Z,102385.41
2022-10-17T21:04:47.493Z,102389.03
2022-10-17T21:07:16.218Z,102380.16
2022-10-17T21:09:46.248Z,102384.72
2022-10-17T21:12:25.869Z,102382.00
2022-10-17T21:14:59.993Z,102392.72
2022-10-17T21:17:28.300Z,102396.25
2022-10-17T21:19:56.976Z,102393.66
2022-10-17T21:22:25.619Z,102414.19
2022-10-17T21:24:53.953Z,102418.66
2022-10-17T21:27:23.669Z,102413.28
2022-10-17T21:29:52.053Z,102418.56
2022-10-17T21:32:33.366Z,102402.53
2022-10-17T21:35:09.287Z,102422.00
2022-10-17T21:37:37.636Z,102390.88
2022-10-17T21:40:07.276Z,102428.22
2022-10-17T21:42:36.935Z,102426.41
2022-10-17T21:45:15.369Z,102419.38
2022-10-17T21:48:11.676Z,102419.44
2022-10-17T21:50:36.887Z,102422.03
2022-10-17T21:53:05.256Z,102414.97
2022-10-17T21:55:33.700Z,102405.22
2022-10-17T21:58:03.423Z,102414.13
2022-10-17T22:00:31.850Z,102408.16
2022-10-17T22:03:01.017Z,102409.97
2022-10-17T22:05:30.270Z,102426.88
2022-10-17T22:07:58.488Z,102430.44
2022-10-17T22:10:26.973Z,102434.81
2022-10-17T22:12:55.170Z,102441.91
2022-10-17T22:15:24.824Z,102452.63
2022-10-17T22:17:53.127Z,102441.00
2022-10-17T22:20:21.509Z,102373.59
2022-10-17T22:22:49.974Z,102442.81
2022-10-17T22:25:18.464Z,102441.00
2022-10-17T22:27:46.719Z,102426.78
2022-10-17T22:30:14.995Z,102446.25
2022-10-17T22:32:44.885Z,102440.88
2022-10-17T22:35:13.696Z,102433.75
2022-10-17T22:37:41.974Z,102431.03
2022-10-17T22:40:11.306Z,102440.81
2022-10-17T22:42:39.776Z,102445.25
2022-10-17T22:45:09.014Z,102447.03
2022-10-17T22:47:37.260Z,102450.66
2022-10-17T22:50:07.534Z,102451.47
2022-10-17T22:52:35.859Z,102451.50
2022-10-17T22:55:04.560Z,102445.25
2022-10-17T22:57:33.108Z,102438.13
2022-10-17T23:00:01.359Z,102440.88
2022-10-17T23:02:30.052Z,102448.94
2022-10-17T23:04:58.767Z,102453.38
2022-10-17T23:07:28.690Z,102432.94
2022-10-17T23:09:57.060Z,102460.50
2022-10-17T23:12:25.730Z,102461.34
2022-10-17T23:14:54.024Z,102454.22
2022-10-17T23:17:22.356Z,102467.66
2022-10-17T23:19:52.947Z,102451.75
2022-10-17T23:22:23.876Z,102445.63
2022-10-17T23:24:53.635Z,102438.50
2022-10-17T23:27:22.082Z,102452.72
2022-10-17T23:29:50.418Z,102442.03
2022-10-17T23:32:21.075Z,102439.41
2022-10-17T23:34:49.171Z,102447.41
2022-10-17T23:37:17.564Z,102451.84
2022-10-17T23:39:45.937Z,102446.53
2022-10-17T23:42:15.556Z,102449.28
2022-10-17T23:44:43.743Z,102452.03
2022-10-17T23:47:12.013Z,102445.00
2022-10-17T23:49:40.310Z,102451.16
2022-10-17T23:52:08.668Z,102452.06
2022-10-17T23:54:36.923Z,102444.06
2022-10-17T23:57:05.464Z,102442.31
2022-10-17T23:59:35.209Z,102442.28
